createdAt,value
2018-04-14T00:01:58.712Z,0.40
2018-04-14T00:04:26.268Z,0.40
2018-04-14T00:06:53.828Z,0.40
2018-04-14T00:09:21.396Z,0.40
2018-04-14T00:11:48.978Z,0.40
2018-04-14T00:14:16.538Z,0.40
2018-04-14T00:16:44.096Z,0.40
2018-04-14T00:19:11.657Z,0.30
2018-04-14T00:21:39.224Z,0.20
2018-04-14T00:24:06.876Z,0.30
2018-04-14T00:26:34.434Z,0.30
2018-04-14T00:29:01.992Z,0.30
2018-04-14T00:31:29.565Z,0.30
2018-04-14T00:33:57.124Z,0.20
2018-04-14T00:36:24.708Z,0.20
2018-04-14T00:38:53.044Z,0.20
2018-04-14T00:41:20.625Z,0.20
2018-04-14T00:43:48.184Z,0.10
2018-04-14T00:46:15.745Z,0.10
2018-04-14T00:48:43.422Z,0.00
2018-04-14T00:51:10.928Z,0.10
2018-04-14T00:53:48.417Z,0.10
2018-04-14T00:56:15.986Z,0.10
2018-04-14T00:58:43.547Z,0.10
2018-04-14T01:01:11.109Z,0.10
2018-04-14T01:03:38.756Z,0.10
2018-04-14T01:06:06.333Z,0.10
2018-04-14T01:08:33.893Z,0.10
2018-04-14T01:11:01.472Z,0.10
2018-04-14T01:13:29.036Z,0.00
2018-04-14T01:15:56.655Z,0.00
2018-04-14T01:18:24.185Z,-0.10
2018-04-14T01:20:51.760Z,-0.10
2018-04-14T01:23:19.332Z,-0.20
2018-04-14T01:25:46.889Z,-0.30
2018-04-14T01:28:14.454Z,-0.30
2018-04-14T01:30:42.016Z,-0.30
2018-04-14T01:33:09.616Z,-0.20
2018-04-14T01:35:37.213Z,-0.30
2018-04-14T01:38:04.794Z,-0.50
2018-04-14T01:40:32.369Z,-0.50
2018-04-14T01:42:59.932Z,-0.50
2018-04-14T01:45:27.541Z,-0.40
2018-04-14T01:47:55.122Z,-0.40
2018-04-14T01:50:22.695Z,-0.40
2018-04-14T01:52:50.258Z,-0.40
2018-04-14T01:55:17.822Z,-0.40
2018-04-14T01:57:45.436Z,-0.40
2018-04-14T02:00:13.004Z,-0.40
2018-04-14T02:02:40.569Z,-0.50
2018-04-14T02:05:08.158Z,-0.60
2018-04-14T02:07:35.720Z,-0.60
2018-04-14T02:10:03.325Z,-0.60
2018-04-14T02:12:30.887Z,-0.50
2018-04-14T02:14:58.482Z,-0.40
2018-04-14T02:17:26.056Z,-0.40
2018-04-14T02:19:53.622Z,-0.70
2018-04-14T02:22:21.232Z,-0.80
2018-04-14T02:24:48.797Z,-0.70
2018-04-14T02:27:16.363Z,-0.80
2018-04-14T02:29:43.931Z,-0.80
2018-04-14T02:32:11.509Z,-0.60
2018-04-14T02:34:39.106Z,-0.80
2018-04-14T02:37:06.696Z,-1.00
2018-04-14T02:39:34.256Z,-0.90
2018-04-14T02:42:01.816Z,-0.90
2018-04-14T02:44:29.381Z,-0.80
2018-04-14T02:46:56.973Z,-0.70
2018-04-14T02:49:24.545Z,-0.60
2018-04-14T02:51:52.101Z,-0.60
2018-04-14T02:54:19.679Z,-0.70
2018-04-14T02:56:48.018Z,-0.90
2018-04-14T02:59:15.636Z,-0.90
2018-04-14T03:01:43.968Z,-1.00
2018-04-14T03:04:11.532Z,-1.00
2018-04-14T03:06:39.092Z,-0.90
2018-04-14T03:09:06.702Z,-0.80
2018-04-14T03:11:35.041Z,-1.10
2018-04-14T03:14:02.600Z,-1.10
2018-04-14T03:16:30.160Z,-1.10
2018-04-14T03:18:57.732Z,-1.10
2018-04-14T03:21:26.089Z,-1.20
2018-04-14T03:23:53.689Z,-1.20
2018-04-14T03:26:22.045Z,-1.30
2018-04-14T03:28:50.388Z,-1.30
2018-04-14T03:31:17.962Z,-1.30
2018-04-14T03:33:45.565Z,-1.20
2018-04-14T03:36:13.164Z,-1.10
2018-04-14T03:38:41.015Z,-1.10
2018-04-14T03:41:08.604Z,-1.10
2018-04-14T03:43:36.172Z,-1.10
2018-04-14T03:46:03.750Z,-1.00
2018-04-14T03:48:32.101Z,-1.00
2018-04-14T03:50:59.660Z,-1.00
2018-04-14T03:53:27.229Z,-1.00
2018-04-14T03:55:54.792Z,-1.00
2018-04-14T03:58:22.362Z,-0.90
2018-04-14T04:00:49.981Z,-0.90
2018-04-14T04:03:17.537Z,-0.90
2018-04-14T04:05:45.125Z,-0.90
2018-04-14T04:08:12.684Z,-0.90
2018-04-14T04:10:40.245Z,-0.90
2018-04-14T04:13:07.832Z,-1.00
2018-04-14T04:15:35.392Z,-1.00
2018-04-14T04:18:03.720Z,-0.90
2018-04-14T04:20:43.845Z,-0.90
2018-04-14T04:23:23.127Z,-0.80
2018-04-14T04:25:50.715Z,-0.60
2018-04-14T04:28:19.045Z,-0.50
2018-04-14T04:30:46.627Z,-0.60
2018-04-14T04:33:14.184Z,-0.40
2018-04-14T04:35:41.753Z,-0.30
2018-04-14T04:38:09.955Z,-0.20
2018-04-14T04:40:37.513Z,0.00
2018-04-14T04:43:05.100Z,0.20
2018-04-14T04:45:32.676Z,0.30
2018-04-14T04:48:00.248Z,0.50
2018-04-14T04:50:27.812Z,0.80
2018-04-14T04:52:55.372Z,1.10
2018-04-14T04:55:22.969Z,1.30
2018-04-14T04:57:50.529Z,1.50
2018-04-14T05:00:18.092Z,1.70
2018-04-14T05:02:45.667Z,1.80
2018-04-14T05:05:13.228Z,2.00
2018-04-14T05:07:40.841Z,2.00
2018-04-14T05:10:08.400Z,2.00
2018-04-14T05:12:35.960Z,2.00
2018-04-14T05:15:03.517Z,2.00
2018-04-14T05:17:31.083Z,2.00
2018-04-14T05:19:58.679Z,2.10
2018-04-14T05:22:26.239Z,2.30
2018-04-14T05:24:53.796Z,2.30
2018-04-14T05:27:21.362Z,2.40
2018-04-14T05:29:48.936Z,2.40
2018-04-14T05:32:16.524Z,2.50
2018-04-14T05:34:44.096Z,2.50
2018-04-14T05:37:11.652Z,2.60
2018-04-14T05:39:39.204Z,2.70
2018-04-14T05:42:06.781Z,2.70
2018-04-14T05:44:34.380Z,2.80
2018-04-14T05:47:01.939Z,2.90
2018-04-14T05:49:29.505Z,2.70
2018-04-14T05:51:57.278Z,2.70
2018-04-14T05:54:24.828Z,2.80
2018-04-14T05:56:52.409Z,3.00
2018-04-14T05:59:19.983Z,3.10
2018-04-14T06:01:47.543Z,3.30
2018-04-14T06:04:15.099Z,3.60
2018-04-14T06:06:42.657Z,4.00
2018-04-14T06:09:10.272Z,4.40
2018-04-14T06:11:37.829Z,4.70
2018-04-14T06:14:05.399Z,4.90
2018-04-14T06:16:32.950Z,5.30
2018-04-14T06:19:00.499Z,5.90
2018-04-14T06:21:28.090Z,6.50
2018-04-14T06:23:55.637Z,6.90
2018-04-14T06:26:23.194Z,7.30
2018-04-14T06:28:50.745Z,7.70
2018-04-14T06:31:18.296Z,8.20
2018-04-14T06:33:45.922Z,8.40
2018-04-14T06:36:13.465Z,8.70
2018-04-14T06:38:41.025Z,9.20
2018-04-14T06:41:08.590Z,9.40
2018-04-14T06:43:36.145Z,9.10
2018-04-14T06:49:04.916Z,9.50
2018-04-14T06:51:32.503Z,9.50
2018-04-14T06:54:00.058Z,10.20
2018-04-14T06:56:27.634Z,10.40
2018-04-14T06:58:55.201Z,10.20
2018-04-14T07:01:24.922Z,10.60
2018-04-14T07:03:52.508Z,10.80
2018-04-14T07:06:20.068Z,10.60
2018-04-14T07:08:47.641Z,10.90
2018-04-14T07:11:15.234Z,11.40
2018-04-14T07:13:42.797Z,11.80
2018-04-14T07:16:10.356Z,11.80
2018-04-14T07:18:37.921Z,11.50
2018-04-14T07:21:05.525Z,12.10
2018-04-14T07:23:33.080Z,12.10
2018-04-14T07:26:00.665Z,12.00
2018-04-14T07:28:28.237Z,12.60
2018-04-14T07:30:55.828Z,12.30
2018-04-14T07:33:23.392Z,12.20
2018-04-14T07:35:50.953Z,12.40
2018-04-14T07:38:18.512Z,12.40
2018-04-14T07:40:46.081Z,12.60
2018-04-14T07:43:14.951Z,12.80
2018-04-14T07:45:42.508Z,12.80
2018-04-14T07:48:10.094Z,13.20
2018-04-14T07:50:37.657Z,13.40
2018-04-14T07:53:05.224Z,13.30
2018-04-14T07:55:32.805Z,13.00
2018-04-14T07:58:00.375Z,13.00
2018-04-14T08:00:27.937Z,12.80
2018-04-14T08:02:55.497Z,12.60
2018-04-14T08:05:23.065Z,12.60
2018-04-14T08:07:50.665Z,12.40
2018-04-14T08:10:19.524Z,12.80
2018-04-14T08:12:48.093Z,12.80
2018-04-14T08:15:15.647Z,12.40
2018-04-14T08:17:43.788Z,12.60
2018-04-14T08:20:15.173Z,12.40
2018-04-14T08:22:42.732Z,12.70
2018-04-14T08:25:10.296Z,12.90
2018-04-14T08:27:37.879Z,13.10
2018-04-14T08:30:05.478Z,13.50
2018-04-14T08:32:33.037Z,13.00
2018-04-14T08:35:01.361Z,13.50
2018-04-14T08:37:28.967Z,13.50
2018-04-14T08:39:56.532Z,13.50
2018-04-14T08:42:24.092Z,13.70
2018-04-14T08:44:52.416Z,14.00
2018-04-14T08:47:19.980Z,13.90
2018-04-14T08:49:47.552Z,13.40
2018-04-14T08:52:15.144Z,13.80
2018-04-14T08:54:43.472Z,13.40
2018-04-14T08:57:11.052Z,13.30
2018-04-14T08:59:38.624Z,13.60
2018-04-14T09:02:06.189Z,13.90
2018-04-14T09:04:34.540Z,14.20
2018-04-14T09:07:02.100Z,14.20
2018-04-14T09:09:29.657Z,14.20
2018-04-14T09:11:57.209Z,14.40
2018-04-14T09:14:24.765Z,14.20
2018-04-14T09:16:52.344Z,14.10
2018-04-14T09:19:19.906Z,14.40
2018-04-14T09:21:47.473Z,15.40
2018-04-14T09:24:15.034Z,15.70
2018-04-14T09:26:42.594Z,15.70
2018-04-14T09:29:10.947Z,15.50
2018-04-14T09:31:38.504Z,15.40
2018-04-14T09:34:06.065Z,15.90
2018-04-14T09:36:33.622Z,16.00
2018-04-14T09:39:01.181Z,15.90
2018-04-14T09:41:28.764Z,15.70
2018-04-14T09:43:56.328Z,15.40
2018-04-14T09:46:23.888Z,15.30
2018-04-14T09:48:51.444Z,16.20
2018-04-14T09:51:19.008Z,16.40
2018-04-14T09:53:47.357Z,15.90
2018-04-14T09:56:14.920Z,15.90
2018-04-14T09:58:42.478Z,16.00
2018-04-14T10:01:15.612Z,16.00
2018-04-14T10:03:48.701Z,15.70
2018-04-14T10:06:17.056Z,16.00
2018-04-14T10:08:44.634Z,16.00
2018-04-14T10:11:12.208Z,15.90
2018-04-14T10:13:39.778Z,16.20
2018-04-14T10:16:07.401Z,16.30
2018-04-14T10:18:34.980Z,16.80
2018-04-14T10:21:03.308Z,16.70
2018-04-14T10:23:31.633Z,16.50
2018-04-14T10:26:00.255Z,16.50
2018-04-14T10:28:27.836Z,16.60
2018-04-14T10:30:55.392Z,16.50
2018-04-14T10:33:22.945Z,16.40
2018-04-14T10:35:50.513Z,16.30
2018-04-14T10:38:18.101Z,16.10
2018-04-14T10:40:46.422Z,15.70
2018-04-14T10:43:14.755Z,15.70
2018-04-14T10:45:43.090Z,15.30
2018-04-14T10:48:10.650Z,15.30
2018-04-14T10:50:38.244Z,15.80
2018-04-14T10:53:05.812Z,15.40
2018-04-14T10:55:34.150Z,15.40
2018-04-14T10:58:01.714Z,15.40
2018-04-14T11:00:29.273Z,15.80
2018-04-14T11:02:56.867Z,15.50
2018-04-14T11:05:25.192Z,15.70
2018-04-14T11:07:52.751Z,15.60
2018-04-14T11:10:20.321Z,15.60
2018-04-14T11:12:47.890Z,15.50
2018-04-14T11:15:15.533Z,16.00
2018-04-14T11:17:43.086Z,15.40
2018-04-14T11:20:10.649Z,15.20
2018-04-14T11:22:38.204Z,14.40
2018-04-14T11:25:05.768Z,14.70
2018-04-14T11:27:33.357Z,14.50
2018-04-14T11:30:01.222Z,14.80
2018-04-14T11:32:28.800Z,14.90
2018-04-14T11:34:56.356Z,14.50
2018-04-14T11:37:23.917Z,14.80
2018-04-14T11:39:51.508Z,14.60
2018-04-14T11:42:19.066Z,14.80
2018-04-14T11:44:46.628Z,14.70
2018-04-14T11:47:14.185Z,14.50
2018-04-14T11:49:41.756Z,14.50
2018-04-14T11:52:09.351Z,14.40
2018-04-14T11:54:36.913Z,14.30
2018-04-14T11:57:04.474Z,14.00
2018-04-14T11:59:32.035Z,14.10
2018-04-14T12:01:59.595Z,14.30
2018-04-14T12:04:27.180Z,14.50
2018-04-14T12:06:54.741Z,13.90
2018-04-14T12:09:23.067Z,13.80
2018-04-14T12:11:50.631Z,13.80
2018-04-14T12:14:18.194Z,14.00
2018-04-14T12:16:45.788Z,13.70
2018-04-14T12:19:13.356Z,13.50
2018-04-14T12:21:40.916Z,14.00
2018-04-14T12:24:09.257Z,13.50
2018-04-14T12:26:36.816Z,13.40
2018-04-14T12:29:04.409Z,13.40
2018-04-14T12:31:31.969Z,13.40
2018-04-14T12:33:59.669Z,13.60
2018-04-14T12:36:27.220Z,13.90
2018-04-14T12:38:54.777Z,14.10
2018-04-14T12:41:22.360Z,14.40
2018-04-14T12:43:49.913Z,14.00
2018-04-14T12:46:17.471Z,13.70
2018-04-14T12:48:51.962Z,13.70
2018-04-14T12:51:20.280Z,13.70
2018-04-14T12:53:47.851Z,13.70
2018-04-14T12:56:15.409Z,13.80
2018-04-14T12:58:42.971Z,14.00
2018-04-14T13:01:10.527Z,14.40
2018-04-14T13:03:38.092Z,14.40
2018-04-14T13:06:05.689Z,14.30
2018-04-14T13:08:34.016Z,14.30
2018-04-14T13:11:01.586Z,14.30
2018-04-14T13:13:29.150Z,14.50
2018-04-14T13:15:56.710Z,14.10
2018-04-14T13:18:24.316Z,13.90
2018-04-14T13:20:51.905Z,14.30
2018-04-14T13:23:19.460Z,14.10
2018-04-14T13:25:47.017Z,14.50
2018-04-14T13:28:14.577Z,14.70
2018-04-14T13:30:42.165Z,14.60
2018-04-14T13:33:09.717Z,14.50
2018-04-14T13:35:38.173Z,14.50
2018-04-14T13:38:05.741Z,14.20
2018-04-14T13:40:33.301Z,14.20
2018-04-14T13:43:00.884Z,14.20
2018-04-14T13:45:29.192Z,14.10
2018-04-14T13:47:56.783Z,14.00
2018-04-14T13:50:25.386Z,13.90
2018-04-14T13:52:52.949Z,13.80
2018-04-14T13:55:20.516Z,13.60
2018-04-14T13:57:48.089Z,13.50
2018-04-14T14:00:15.693Z,13.50
2018-04-14T14:02:44.524Z,13.90
2018-04-14T14:05:12.139Z,13.90
2018-04-14T14:07:40.465Z,13.50
2018-04-14T14:10:08.033Z,13.50
2018-04-14T14:12:35.592Z,13.40
2018-04-14T14:15:03.212Z,13.50
2018-04-14T14:17:30.773Z,13.40
2018-04-14T14:19:59.101Z,13.40
2018-04-14T14:22:26.664Z,13.30
2018-04-14T14:24:54.256Z,13.40
2018-04-14T14:27:21.849Z,13.50
2018-04-14T14:29:49.410Z,13.40
2018-04-14T14:32:16.973Z,13.40
2018-04-14T14:34:44.540Z,13.50
2018-04-14T14:37:12.113Z,13.40
2018-04-14T14:39:39.696Z,13.40
2018-04-14T14:42:07.257Z,13.10
2018-04-14T14:44:34.839Z,13.10
2018-04-14T14:47:02.412Z,13.00
2018-04-14T14:49:29.968Z,13.00
2018-04-14T14:51:57.558Z,12.70
2018-04-14T14:54:25.125Z,12.70
2018-04-14T14:56:52.725Z,12.70
2018-04-14T14:59:20.297Z,12.50
2018-04-14T15:01:47.864Z,12.50
2018-04-14T15:04:15.459Z,12.50
2018-04-14T15:06:43.024Z,12.70
2018-04-14T15:09:10.593Z,12.70
2018-04-14T15:11:38.174Z,12.50
2018-04-14T15:14:05.745Z,12.30
2018-04-14T15:16:34.089Z,12.20
2018-04-14T15:19:01.676Z,12.10
2018-04-14T15:21:30.104Z,12.00
2018-04-14T15:23:57.681Z,11.90
2018-04-14T15:26:25.251Z,11.90
2018-04-14T15:28:52.840Z,11.80
2018-04-14T15:31:20.421Z,11.80
2018-04-14T15:33:47.977Z,11.70
2018-04-14T15:36:15.536Z,11.60
2018-04-14T15:38:43.092Z,11.50
2018-04-14T15:41:10.685Z,11.50
2018-04-14T15:43:40.328Z,11.60
2018-04-14T15:46:07.891Z,11.70
2018-04-14T15:48:36.627Z,11.60
2018-04-14T15:51:05.551Z,11.30
2018-04-14T15:53:33.148Z,11.30
2018-04-14T15:56:01.469Z,11.00
2018-04-14T15:58:33.134Z,11.00
2018-04-14T16:01:00.748Z,10.90
2018-04-14T16:03:29.082Z,10.80
2018-04-14T16:05:56.657Z,10.80
2018-04-14T16:08:24.248Z,10.90
2018-04-14T16:10:52.581Z,10.80
2018-04-14T16:13:20.151Z,10.70
2018-04-14T16:15:47.708Z,10.90
2018-04-14T16:18:15.308Z,10.80
2018-04-14T16:20:42.868Z,10.80
2018-04-14T16:23:10.437Z,10.80
2018-04-14T16:25:38.005Z,10.70
2018-04-14T16:28:05.567Z,10.60
2018-04-14T16:30:33.152Z,10.50
2018-04-14T16:33:00.719Z,10.50
2018-04-14T16:35:28.297Z,10.50
2018-04-14T16:37:55.866Z,10.50
2018-04-14T16:40:24.198Z,10.20
2018-04-14T16:42:51.807Z,10.20
2018-04-14T16:45:20.124Z,10.10
2018-04-14T16:47:47.686Z,10.10
2018-04-14T16:50:15.258Z,10.10
2018-04-14T16:52:42.824Z,10.10
2018-04-14T16:55:10.412Z,10.00
2018-04-14T16:57:37.975Z,9.90
2018-04-14T17:00:07.450Z,9.80
2018-04-14T17:02:36.146Z,9.80
2018-04-14T17:05:05.234Z,9.70
2018-04-14T17:07:32.936Z,9.70
2018-04-14T17:10:01.276Z,9.40
2018-04-14T17:12:28.836Z,9.40
2018-04-14T17:14:56.404Z,9.40
2018-04-14T17:17:23.982Z,9.40
2018-04-14T17:19:52.336Z,9.30
2018-04-14T17:22:19.901Z,9.30
2018-04-14T17:24:47.487Z,9.30
2018-04-14T17:27:15.824Z,9.10
2018-04-14T17:29:43.390Z,9.10
2018-04-14T17:32:11.024Z,9.10
2018-04-14T17:34:38.588Z,9.00
2018-04-14T17:37:06.145Z,8.90
2018-04-14T17:39:33.700Z,9.00
2018-04-14T17:42:01.280Z,8.90
2018-04-14T17:44:28.895Z,8.80
2018-04-14T17:46:56.592Z,8.80
2018-04-14T17:49:24.169Z,8.60
2018-04-14T17:51:51.737Z,8.50
2018-04-14T17:54:19.296Z,8.40
2018-04-14T17:56:46.892Z,8.30
2018-04-14T17:59:14.457Z,8.20
2018-04-14T18:01:42.221Z,8.10
2018-04-14T18:04:09.796Z,7.90
2018-04-14T18:06:37.348Z,7.90
2018-04-14T18:09:04.949Z,7.90
2018-04-14T18:11:32.513Z,7.90
2018-04-14T18:14:00.074Z,7.80
2018-04-14T18:16:27.636Z,7.80
2018-04-14T18:18:55.201Z,7.80
2018-04-14T18:21:22.801Z,7.70
2018-04-14T18:23:50.375Z,7.60
2018-04-14T18:26:18.040Z,7.50
2018-04-14T18:28:45.536Z,7.40
2018-04-14T18:31:13.092Z,7.40
2018-04-14T18:33:40.689Z,7.30
2018-04-14T18:36:08.252Z,7.30
2018-04-14T18:38:35.809Z,7.20
2018-04-14T18:41:04.156Z,7.10
2018-04-14T18:43:31.757Z,7.10
2018-04-14T18:45:59.339Z,7.00
2018-04-14T18:48:26.980Z,7.00
2018-04-14T18:50:54.561Z,6.90
2018-04-14T18:53:22.189Z,6.80
2018-04-14T18:55:51.349Z,6.70
2018-04-14T18:58:20.109Z,6.70
2018-04-14T19:00:47.683Z,6.70
2018-04-14T19:03:15.240Z,6.60
2018-04-14T19:05:42.830Z,6.50
2018-04-14T19:08:10.390Z,6.40
2018-04-14T19:10:37.960Z,6.30
2018-04-14T19:13:05.516Z,6.30
2018-04-14T19:15:33.073Z,6.20
2018-04-14T19:18:01.430Z,6.30
2018-04-14T19:20:29.007Z,6.20
2018-04-14T19:22:56.569Z,6.20
2018-04-14T19:25:24.133Z,6.20
2018-04-14T19:27:52.473Z,6.20
2018-04-14T19:30:20.131Z,6.20
2018-04-14T19:32:47.716Z,6.20
2018-04-14T19:35:15.274Z,6.10
2018-04-14T19:37:42.872Z,5.90
2018-04-14T19:40:10.432Z,5.90
2018-04-14T19:42:38.024Z,5.80
2018-04-14T19:45:05.585Z,5.70
2018-04-14T19:47:33.151Z,5.60
2018-04-14T19:50:00.712Z,5.60
2018-04-14T19:52:28.273Z,5.60
2018-04-14T19:54:55.848Z,5.50
2018-04-14T19:57:23.413Z,5.40
2018-04-14T19:59:51.035Z,5.50
2018-04-14T20:02:18.590Z,5.40
2018-04-14T20:04:46.155Z,5.40
2018-04-14T20:07:13.760Z,5.40
2018-04-14T20:09:41.324Z,5.30
2018-04-14T20:12:08.941Z,5.10
2018-04-14T20:14:36.503Z,5.20
2018-04-14T20:17:04.073Z,5.20
2018-04-14T20:19:31.668Z,5.20
2018-04-14T20:21:59.277Z,5.10
2018-04-14T20:24:26.859Z,4.90
2018-04-14T20:26:54.436Z,4.80
2018-04-14T20:29:21.994Z,4.80
2018-04-14T20:31:49.554Z,4.70
2018-04-14T20:34:17.117Z,4.80
2018-04-14T20:36:44.672Z,4.80
2018-04-14T20:39:12.240Z,4.80
2018-04-14T20:41:39.800Z,4.70
2018-04-14T20:44:07.373Z,4.70
2018-04-14T20:46:34.971Z,4.70
2018-04-14T20:49:02.524Z,4.60
2018-04-14T20:51:30.080Z,4.50
2018-04-14T20:53:57.636Z,4.40
2018-04-14T20:56:25.198Z,4.40
2018-04-14T20:58:52.788Z,4.40
2018-04-14T21:01:20.345Z,4.20
2018-04-14T21:03:47.892Z,4.10
2018-04-14T21:06:15.454Z,4.20
2018-04-14T21:08:43.777Z,4.20
2018-04-14T21:11:12.124Z,4.20
2018-04-14T21:13:39.683Z,4.10
2018-04-14T21:16:07.287Z,4.10
2018-04-14T21:18:35.597Z,4.10
2018-04-14T21:21:03.146Z,4.10
2018-04-14T21:23:30.724Z,4.10
2018-04-14T21:25:58.296Z,4.10
2018-04-14T21:28:25.851Z,4.00
2018-04-14T21:30:53.402Z,4.00
2018-04-14T21:33:20.961Z,3.90
2018-04-14T21:35:48.545Z,3.80
2018-04-14T21:38:16.100Z,3.60
2018-04-14T21:40:43.653Z,3.70
2018-04-14T21:43:11.209Z,3.80
2018-04-14T21:45:38.778Z,3.80
2018-04-14T21:48:06.384Z,3.60
2018-04-14T21:50:33.933Z,3.50
2018-04-14T21:53:01.505Z,3.50
2018-04-14T21:55:29.057Z,3.50
2018-04-14T21:57:57.372Z,3.20
2018-04-14T22:00:24.964Z,3.20
2018-04-14T22:02:52.516Z,3.40
2018-04-14T22:05:20.072Z,3.20
2018-04-14T22:07:47.626Z,3.30
2018-04-14T22:10:15.180Z,3.30
2018-04-14T22:12:42.775Z,3.30
2018-04-14T22:15:11.116Z,3.20
2018-04-14T22:17:38.676Z,3.20
2018-04-14T22:20:06.225Z,3.20
2018-04-14T22:22:33.776Z,3.10
2018-04-14T22:25:01.353Z,3.00
2018-04-14T22:27:28.905Z,3.00
2018-04-14T22:29:56.472Z,3.10
2018-04-14T22:32:24.024Z,3.00
2018-04-14T22:34:51.585Z,3.00
2018-04-14T22:37:19.176Z,2.90
2018-04-14T22:39:46.736Z,3.00
2018-04-14T22:42:14.288Z,3.00
2018-04-14T22:44:41.841Z,3.00
2018-04-14T22:47:09.397Z,2.90
2018-04-14T22:49:37.005Z,3.00
2018-04-14T22:52:04.558Z,3.00
2018-04-14T22:54:32.904Z,2.90
2018-04-14T22:57:00.464Z,2.90
2018-04-14T22:59:28.027Z,2.90
2018-04-14T23:01:55.629Z,2.90
2018-04-14T23:04:23.184Z,2.90
2018-04-14T23:06:50.752Z,2.80
2018-04-14T23:09:18.332Z,2.60
2018-04-14T23:11:45.896Z,2.60
2018-04-14T23:14:13.452Z,2.70
2018-04-14T23:16:41.010Z,2.70
2018-04-14T23:19:08.568Z,2.70
2018-04-14T23:21:36.157Z,2.80
2018-04-14T23:24:03.719Z,2.90
2018-04-14T23:26:31.313Z,2.80
2018-04-14T23:28:58.872Z,2.80
2018-04-14T23:31:26.427Z,2.80
2018-04-14T23:33:54.009Z,2.70
2018-04-14T23:36:21.576Z,2.70
2018-04-14T23:38:49.140Z,2.70
2018-04-14T23:41:16.704Z,2.70
2018-04-14T23:43:44.276Z,2.70
2018-04-14T23:46:11.867Z,2.70
2018-04-14T23:48:39.429Z,2.60
2018-04-14T23:51:07.756Z,2.50
2018-04-14T23:53:35.315Z,2.50
2018-04-14T23:56:02.874Z,2.70
2018-04-14T23:58:30.453Z,2.70
